Time;durP1;ratioP1;P1;durP2;ratioP2;P2;SDS_P1;SDS_P2;PMS_P1;PMS_P2;Temp;Humidity;BMP_temperature;BMP_pressure;BME280_temperature;BME280_humidity;BME280_pressure;Samples;Min_cycle;Max_cycle;Signal;HPM_P1;HPM_P2
2022/02/15 00:01:53;;;;;;;26.17;23.58;;;6.10;99.90;;;;;;4933693;29;20432;-79
2022/02/15 00:04:20;;;;;;;25.88;23.33;;;6.00;99.90;;;;;;4936172;29;20032;-79
2022/02/15 00:06:46;;;;;;;25.05;22.55;;;6.00;99.90;;;;;;4952777;29;20051;-78
2022/02/15 00:09:12;;;;;;;25.20;22.63;;;6.00;99.90;;;;;;4936893;29;20032;-79
2022/02/15 00:11:39;;;;;;;25.15;23.00;;;5.90;99.90;;;;;;4938548;29;20043;-79
2022/02/15 00:14:07;;;;;;;26.75;24.33;;;5.80;99.90;;;;;;4938939;29;20050;-79
2022/02/15 00:16:33;;;;;;;23.85;21.60;;;5.80;99.90;;;;;;4939562;29;20031;-79
2022/02/15 00:18:59;;;;;;;24.20;22.00;;;5.70;99.90;;;;;;4937839;29;20036;-79
2022/02/15 00:21:26;;;;;;;24.30;21.95;;;5.60;99.90;;;;;;4938079;29;20043;-78
2022/02/15 00:23:52;;;;;;;26.15;23.65;;;5.60;99.90;;;;;;4937447;29;20043;-78
2022/02/15 00:26:18;;;;;;;28.10;25.50;;;5.70;99.90;;;;;;4938421;29;20024;-78
2022/02/15 00:28:44;;;;;;;28.02;25.25;;;5.80;99.90;;;;;;4937896;29;20036;-78
2022/02/15 00:31:12;;;;;;;26.50;23.70;;;5.70;99.90;;;;;;4952512;29;20078;-79
2022/02/15 00:33:38;;;;;;;25.27;23.00;;;5.60;99.90;;;;;;4938755;29;20040;-79
2022/02/15 00:36:05;;;;;;;25.48;22.90;;;5.50;99.90;;;;;;4937664;29;20048;-79
2022/02/15 00:38:32;;;;;;;26.10;23.42;;;5.50;99.90;;;;;;4936344;29;20040;-79
2022/02/15 00:40:58;;;;;;;24.50;22.20;;;5.30;99.90;;;;;;4937043;29;20461;-79
2022/02/15 00:43:26;;;;;;;24.83;22.58;;;5.30;99.90;;;;;;4936278;29;20032;-78
2022/02/15 00:45:52;;;;;;;26.05;23.65;;;5.30;99.90;;;;;;4951306;29;20039;-83
2022/02/15 00:48:18;;;;;;;30.45;27.50;;;5.30;99.90;;;;;;4935759;29;20374;-78
2022/02/15 00:50:44;;;;;;;26.63;24.20;;;5.30;99.90;;;;;;4937349;29;20039;-78
2022/02/15 00:53:11;;;;;;;28.33;25.60;;;5.30;99.90;;;;;;4936209;29;20047;-78
2022/02/15 00:55:37;;;;;;;30.25;27.25;;;5.40;99.90;;;;;;4936772;29;20036;-78
2022/02/15 00:58:03;;;;;;;32.38;29.15;;;5.60;99.90;;;;;;4939112;29;20405;-78
2022/02/15 01:00:30;;;;;;;31.15;28.20;;;5.70;99.90;;;;;;4940690;29;20426;-78
2022/02/15 01:02:56;;;;;;;32.47;29.08;;;5.80;99.90;;;;;;4935723;29;20054;-79
2022/02/15 01:05:22;;;;;;;32.03;29.13;;;5.80;99.90;;;;;;4936122;29;20036;-78
2022/02/15 01:07:48;;;;;;;31.80;28.52;;;5.80;99.90;;;;;;4935643;29;20508;-78
2022/02/15 01:10:14;;;;;;;31.63;28.77;;;5.90;99.90;;;;;;4936246;29;20034;-78
2022/02/15 01:12:41;;;;;;;27.92;25.33;;;5.90;99.90;;;;;;4936511;29;20036;-78
2022/02/15 01:15:07;;;;;;;27.77;25.05;;;5.90;99.90;;;;;;4933449;29;20488;-78
2022/02/15 01:17:34;;;;;;;28.05;23.48;;;5.80;99.90;;;;;;4936990;29;20031;-78
2022/02/15 01:20:00;;;;;;;26.70;24.23;;;5.80;99.90;;;;;;4935845;29;20031;-79
2022/02/15 01:22:27;;;;;;;26.13;23.92;;;5.80;99.90;;;;;;4936282;29;20088;-78
2022/02/15 01:24:53;;;;;;;26.13;23.52;;;5.70;99.90;;;;;;4934524;29;20043;-83
2022/02/15 01:27:19;;;;;;;26.20;23.50;;;5.70;99.90;;;;;;4936693;29;20040;-78
2022/02/15 01:29:46;;;;;;;24.17;21.90;;;5.60;99.90;;;;;;4934541;29;20063;-78
2022/02/15 01:32:15;;;;;;;23.52;21.30;;;5.60;99.90;;;;;;4934204;29;20054;-77
2022/02/15 01:34:42;;;;;;;24.95;22.65;;;5.60;99.90;;;;;;4934865;29;20150;-77
2022/02/15 01:37:08;;;;;;;23.60;21.55;;;5.50;99.90;;;;;;4933933;29;20044;-78
2022/02/15 01:39:34;;;;;;;26.23;23.52;;;5.50;99.90;;;;;;4935957;29;20038;-78
2022/02/15 01:42:01;;;;;;;25.27;23.23;;;5.40;99.90;;;;;;4935204;29;20382;-78
2022/02/15 01:44:28;;;;;;;28.75;26.05;;;5.50;99.90;;;;;;4950660;29;20047;-78
2022/02/15 01:46:54;;;;;;;27.98;24.90;;;5.60;99.90;;;;;;4935770;29;20032;-83
2022/02/15 01:49:21;;;;;;;25.52;23.38;;;5.60;99.90;;;;;;4934184;29;20047;-77
2022/02/15 01:51:47;;;;;;;27.08;24.20;;;5.60;99.90;;;;;;4966755;28;20059;-77
2022/02/15 01:54:13;;;;;;;24.40;22.00;;;5.60;99.90;;;;;;4933720;29;20047;-78
2022/02/15 01:56:42;;;;;;;24.52;22.13;;;5.60;99.90;;;;;;4934718;29;20044;-78
2022/02/15 01:59:09;;;;;;;26.25;23.77;;;5.50;99.90;;;;;;4949378;29;20044;-78
2022/02/15 02:01:35;;;;;;;23.83;21.60;;;5.50;99.90;;;;;;4949844;29;20055;-78
2022/02/15 02:05:47;;;;;;;25.15;22.40;;;5.50;99.90;;;;;;4933629;29;20070;-78
2022/02/15 02:06:56;;;;;;;24.58;22.55;;;5.50;99.90;;;;;;4933908;29;20046;-83
2022/02/15 02:09:23;;;;;;;26.70;24.13;;;5.60;99.90;;;;;;4933862;29;20052;-77
2022/02/15 02:11:50;;;;;;;26.83;24.23;;;5.60;99.90;;;;;;4950441;29;20040;-78
2022/02/15 02:14:22;;;;;;;25.20;23.05;;;5.60;99.90;;;;;;4934067;29;20477;-77
2022/02/15 02:16:52;;;;;;;26.80;24.20;;;5.60;99.90;;;;;;4934411;29;20054;-78
2022/02/15 02:19:22;;;;;;;24.00;21.88;;;5.60;99.90;;;;;;4933586;29;20043;-78
2022/02/15 02:21:50;;;;;;;23.80;21.48;;;5.60;99.90;;;;;;4949861;29;20051;-78
2022/02/15 02:24:18;;;;;;;21.98;19.88;;;5.70;99.90;;;;;;4933024;29;20040;-79
2022/02/15 02:26:48;;;;;;;21.27;19.40;;;5.70;99.90;;;;;;4933600;29;20065;-78
2022/02/15 02:29:15;;;;;;;18.92;17.33;;;5.70;99.90;;;;;;4935182;29;20027;-78
2022/02/15 02:31:44;;;;;;;19.75;17.83;;;5.80;99.90;;;;;;4949721;29;20048;-78
2022/02/15 02:34:12;;;;;;;36.47;32.72;;;5.80;99.90;;;;;;4932995;29;20047;-78
2022/02/15 02:36:44;;;;;;;51.25;42.92;;;5.80;99.90;;;;;;4949804;29;20048;-78
2022/02/15 02:39:12;;;;;;;100.63;84.68;;;5.80;99.90;;;;;;4933256;29;20397;-78
2022/02/15 02:41:38;;;;;;;70.55;46.35;;;5.90;99.90;;;;;;4935348;29;20071;-78
2022/02/15 02:44:05;;;;;;;38.92;30.90;;;5.90;99.90;;;;;;4934599;29;20035;-79
2022/02/15 02:46:32;;;;;;;54.10;42.85;;;5.90;99.90;;;;;;4933601;29;20032;-78
2022/02/15 02:48:58;;;;;;;39.67;34.15;;;5.90;99.90;;;;;;4934285;29;20042;-82
2022/02/15 02:51:25;;;;;;;54.83;45.10;;;5.90;99.90;;;;;;4932880;29;20051;-77
2022/02/15 02:53:51;;;;;;;62.28;48.33;;;6.00;99.90;;;;;;4933413;29;20370;-78
2022/02/15 02:56:18;;;;;;;98.30;81.00;;;6.00;99.90;;;;;;4948343;29;20644;-78
2022/02/15 02:58:45;;;;;;;40.42;31.90;;;6.00;99.90;;;;;;4934943;29;20035;-79
2022/02/15 03:01:12;;;;;;;70.53;54.38;;;5.90;99.90;;;;;;4931661;29;20051;-78
2022/02/15 03:03:41;;;;;;;26.65;20.65;;;5.90;99.90;;;;;;4933220;29;20043;-78
2022/02/15 03:06:09;;;;;;;105.40;86.57;;;5.90;99.90;;;;;;4931825;29;20048;-78
2022/02/15 03:08:36;;;;;;;36.65;31.38;;;5.80;99.90;;;;;;4932949;29;20078;-78
2022/02/15 03:11:02;;;;;;;36.17;32.50;;;5.80;99.90;;;;;;4932522;29;20393;-84
2022/02/15 03:13:44;;;;;;;15.95;13.82;;;5.80;99.90;;;;;;4948904;29;20489;-79
2022/02/15 03:16:17;;;;;;;40.40;34.35;;;5.80;99.90;;;;;;4932475;29;20040;-78
2022/02/15 03:18:43;;;;;;;61.55;49.03;;;5.80;99.90;;;;;;4934105;29;20358;-78
2022/02/15 03:21:12;;;;;;;48.38;38.20;;;5.80;99.90;;;;;;4932031;29;20466;-78
2022/02/15 03:23:38;;;;;;;15.80;12.38;;;5.80;99.90;;;;;;4948853;29;20051;-78
2022/02/15 03:26:06;;;;;;;26.20;22.85;;;5.80;99.90;;;;;;4932315;29;20043;-78
2022/02/15 03:28:35;;;;;;;17.30;12.02;;;5.80;99.90;;;;;;4933205;29;20047;-79
2022/02/15 03:31:02;;;;;;;11.18;10.25;;;5.80;99.90;;;;;;4932657;29;20381;-85
2022/02/15 03:33:32;;;;;;;47.10;42.42;;;5.70;99.90;;;;;;4964383;28;20059;-78
2022/02/15 03:36:00;;;;;;;13.73;12.48;;;5.70;99.90;;;;;;4948707;29;20465;-83
2022/02/15 03:38:27;;;;;;;37.42;31.83;;;5.70;99.90;;;;;;4948632;28;20389;-78
2022/02/15 03:43:59;;;;;;;26.75;23.85;;;5.60;99.90;;;;;;4952330;29;20074;-78
2022/02/15 03:46:30;;;;;;;17.80;16.13;;;5.60;99.90;;;;;;4936676;29;20046;-78
2022/02/15 03:48:57;;;;;;;18.45;16.55;;;5.60;99.90;;;;;;4936404;29;20362;-78
2022/02/15 03:51:24;;;;;;;57.28;51.38;;;5.60;99.90;;;;;;4935600;29;20040;-78
2022/02/15 03:53:54;;;;;;;21.17;18.98;;;5.70;99.90;;;;;;4936818;29;20040;-79
2022/02/15 03:56:20;;;;;;;27.90;25.25;;;5.60;99.90;;;;;;4951973;29;20050;-79
2022/02/15 03:58:47;;;;;;;13.60;12.30;;;5.70;99.90;;;;;;4952244;29;20072;-79
2022/02/15 04:01:16;;;;;;;15.52;12.13;;;5.60;99.90;;;;;;4935057;29;20055;-79
2022/02/15 04:03:43;;;;;;;15.20;13.77;;;5.60;99.90;;;;;;4951926;29;20059;-79
2022/02/15 04:06:11;;;;;;;11.02;10.02;;;5.70;99.90;;;;;;4951841;29;20043;-79
2022/02/15 04:08:37;;;;;;;12.65;11.45;;;5.70;99.90;;;;;;4936240;29;20387;-78
2022/02/15 04:11:05;;;;;;;11.55;9.02;;;5.70;99.90;;;;;;4935792;29;20048;-83
2022/02/15 04:13:31;;;;;;;13.23;12.00;;;5.70;99.90;;;;;;4952049;29;20058;-78
2022/02/15 04:15:59;;;;;;;13.05;11.82;;;5.70;99.90;;;;;;4936418;29;20047;-79
2022/02/15 04:18:26;;;;;;;13.57;12.20;;;5.70;99.90;;;;;;4935646;29;20044;-78
2022/02/15 04:20:52;;;;;;;15.10;13.60;;;5.70;99.90;;;;;;4935743;29;20540;-78
2022/02/15 04:23:19;;;;;;;10.25;9.30;;;5.80;99.90;;;;;;4937086;29;20073;-78
2022/02/15 04:25:45;;;;;;;14.18;10.13;;;5.80;99.90;;;;;;4936280;29;20054;-78
2022/02/15 04:28:25;;;;;;;10.75;9.40;;;5.80;99.90;;;;;;4935651;29;20058;-78
2022/02/15 04:30:51;;;;;;;8.82;8.02;;;5.90;99.90;;;;;;4951806;29;20434;-78
2022/02/15 04:33:17;;;;;;;27.60;24.40;;;5.90;99.90;;;;;;4936666;29;20035;-78
2022/02/15 04:35:44;;;;;;;10.70;9.02;;;5.90;99.90;;;;;;4935799;29;20366;-78
2022/02/15 04:38:11;;;;;;;14.13;12.52;;;5.80;99.90;;;;;;4934895;29;20031;-79
2022/02/15 04:40:38;;;;;;;10.88;9.77;;;5.80;99.90;;;;;;4936079;29;20059;-78
2022/02/15 04:43:06;;;;;;;7.60;6.13;;;5.90;99.90;;;;;;4935159;29;20064;-80
2022/02/15 04:45:33;;;;;;;11.50;7.53;;;5.80;99.90;;;;;;4952011;29;20047;-78
2022/02/15 04:47:59;;;;;;;7.28;6.57;;;5.80;99.90;;;;;;4951591;29;20397;-78
2022/02/15 04:50:28;;;;;;;9.15;8.32;;;5.80;99.90;;;;;;4935842;29;20059;-79
2022/02/15 04:52:55;;;;;;;13.18;9.18;;;5.90;99.90;;;;;;4967589;28;20499;-78
2022/02/15 04:55:23;;;;;;;14.82;7.38;;;5.80;99.90;;;;;;4935484;29;20059;-78
2022/02/15 04:57:55;;;;;;;9.27;8.43;;;5.70;99.90;;;;;;4935827;29;20478;-78
2022/02/15 05:00:22;;;;;;;8.65;7.82;;;5.60;99.90;;;;;;4935412;29;20043;-78
2022/02/15 05:03:10;;;;;;;10.77;9.82;;;5.60;99.90;;;;;;4937201;29;20055;-78
2022/02/15 05:05:37;;;;;;;7.85;6.68;;;5.60;99.90;;;;;;4935964;29;20055;-78
2022/02/15 05:08:03;;;;;;;9.15;8.32;;;5.50;99.90;;;;;;4955852;28;20499;-78
2022/02/15 05:10:30;;;;;;;9.02;8.20;;;5.50;99.90;;;;;;4956175;29;20045;-79
2022/02/15 05:12:56;;;;;;;9.15;8.13;;;5.50;99.90;;;;;;4957683;29;20037;-78
2022/02/15 05:15:38;;;;;;;;;;;5.40;99.90;;;;;;4958058;29;20051;-77
2022/02/15 05:18:15;;;;;;;8.88;8.07;;;5.50;99.90;;;;;;4956478;29;19921;-78
2022/02/15 05:20:47;;;;;;;10.93;8.27;;;5.50;99.90;;;;;;4954450;29;20043;-78
2022/02/15 05:23:14;;;;;;;11.07;8.65;;;5.60;99.90;;;;;;4969268;28;20504;-77
2022/02/15 05:25:42;;;;;;;10.07;9.23;;;5.60;99.90;;;;;;4937865;29;20047;-77
2022/02/15 05:28:23;;;;;;;11.48;9.63;;;5.60;99.90;;;;;;4951726;29;20039;-77
2022/02/15 05:30:50;;;;;;;7.68;7.07;;;5.60;99.90;;;;;;4953864;29;20043;-77
2022/02/15 05:33:20;;;;;;;9.07;8.17;;;5.60;99.90;;;;;;4952994;29;20054;-78
2022/02/15 05:35:51;;;;;;;8.18;7.47;;;5.70;99.90;;;;;;4938289;29;20625;-77
2022/02/15 05:38:18;;;;;;;7.45;6.75;;;5.70;99.90;;;;;;4952964;28;20040;-77
2022/02/15 05:40:48;;;;;;;8.55;7.18;;;5.60;99.90;;;;;;4953775;29;20039;-77
2022/02/15 05:43:14;;;;;;;7.13;6.47;;;5.70;99.90;;;;;;4954353;28;20035;-77
2022/02/15 05:45:44;;;;;;;8.15;7.40;;;5.70;99.90;;;;;;4953951;29;20047;-81
2022/02/15 05:48:17;;;;;;;9.98;7.30;;;5.70;99.90;;;;;;4952811;29;20046;-81
2022/02/15 05:50:50;;;;;;;10.27;7.70;;;5.70;99.90;;;;;;4953821;28;20035;-81
2022/02/15 05:53:21;;;;;;;11.65;7.78;;;5.60;99.90;;;;;;4937689;29;20047;-80
2022/02/15 05:55:52;;;;;;;9.88;8.98;;;5.50;99.90;;;;;;4953466;29;20392;-81
2022/02/15 05:58:22;;;;;;;10.77;7.82;;;5.60;99.90;;;;;;4952784;29;20055;-81
2022/02/15 06:00:51;;;;;;;12.32;11.23;;;5.50;99.90;;;;;;4953200;28;20062;-81
2022/02/15 06:06:03;;;;;;;9.32;8.45;;;5.40;99.90;;;;;;4954876;28;20051;-81
2022/02/15 06:08:31;;;;;;;14.57;12.50;;;5.30;99.90;;;;;;4958745;28;20299;-81
2022/02/15 06:11:03;;;;;;;9.40;8.40;;;5.30;99.90;;;;;;4967620;29;20039;-82
2022/02/15 06:13:35;;;;;;;11.90;10.73;;;5.30;99.90;;;;;;4969564;29;20061;-82
2022/02/15 06:16:06;;;;;;;10.75;8.20;;;5.20;99.90;;;;;;4970868;29;20043;-80
2022/02/15 06:18:50;;;;;;;8.82;7.97;;;5.20;99.90;;;;;;4958411;29;20042;-80
2022/02/15 06:21:17;;;;;;;8.88;8.02;;;5.20;99.90;;;;;;4955713;29;20506;-80
2022/02/15 06:23:44;;;;;;;12.95;9.23;;;5.20;99.90;;;;;;4954001;29;20050;-80
2022/02/15 06:26:12;;;;;;;9.32;8.60;;;5.20;99.90;;;;;;4953027;29;20050;-79
2022/02/15 06:28:58;;;;;;;8.38;7.68;;;5.20;99.90;;;;;;4954731;29;20043;-79
2022/02/15 06:31:31;;;;;;;10.18;9.23;;;5.20;99.90;;;;;;4952698;29;20046;-79
2022/02/15 06:34:00;;;;;;;14.05;9.68;;;5.10;99.90;;;;;;4936739;29;20353;-80
2022/02/15 06:36:27;;;;;;;10.45;8.75;;;5.00;99.90;;;;;;4952204;28;20058;-80
2022/02/15 06:38:58;;;;;;;24.27;11.75;;;4.90;99.90;;;;;;4953085;29;20457;-79
2022/02/15 06:41:24;;;;;;;12.05;10.80;;;4.70;99.90;;;;;;4952120;28;20042;-78
2022/02/15 06:44:10;;;;;;;11.15;10.15;;;4.60;99.90;;;;;;4954853;29;20515;-81
2022/02/15 06:46:41;;;;;;;11.45;9.70;;;4.50;99.90;;;;;;4952478;29;20054;-79
2022/02/15 06:49:17;;;;;;;9.40;8.55;;;4.50;99.90;;;;;;4937855;29;20039;-78
2022/02/15 06:51:59;;;;;;;;;;;4.40;99.90;;;;;;4952902;29;20039;-80
2022/02/15 06:54:26;;;;;;;9.95;9.05;;;4.50;99.90;;;;;;4954523;28;19911;-78
2022/02/15 06:56:56;;;;;;;14.77;10.50;;;4.50;99.90;;;;;;4949527;29;20149;-92
2022/02/15 06:59:28;;;;;;;13.90;10.68;;;4.60;99.90;;;;;;4953045;29;20043;-89
2022/02/15 07:01:55;;;;;;;13.35;11.82;;;4.70;99.90;;;;;;4970272;28;20058;-89
2022/02/15 07:04:22;;;;;;;19.35;12.05;;;4.70;99.90;;;;;;4954872;29;20424;-89
2022/02/15 07:06:54;;;;;;;15.27;13.68;;;4.70;99.90;;;;;;4956300;29;20054;-89
2022/02/15 07:09:21;;;;;;;15.70;14.10;;;4.80;99.90;;;;;;4971397;28;20047;-89
2022/02/15 07:12:10;;;;;;;12.98;11.73;;;4.90;99.90;;;;;;4956182;29;20054;-89
2022/02/15 07:14:50;;;;;;;14.60;12.70;;;5.00;99.90;;;;;;4957693;29;20050;-89
2022/02/15 07:17:21;;;;;;;14.95;11.43;;;5.10;99.90;;;;;;4958399;29;20047;-87
2022/02/15 07:19:47;;;;;;;11.75;9.35;;;5.20;99.90;;;;;;4974609;28;20046;-87
2022/02/15 07:22:22;;;;;;;15.25;9.88;;;5.30;99.90;;;;;;4959173;29;20046;-89
2022/02/15 07:25:08;;;;;;;9.38;8.52;;;5.40;99.90;;;;;;4960938;29;20500;-89
2022/02/15 07:28:09;;;;;;;11.77;10.65;;;5.50;99.90;;;;;;4961828;29;20480;-90
2022/02/15 07:30:35;;;;;;;11.32;10.25;;;5.50;99.90;;;;;;4973521;28;20055;-89
2022/02/15 07:33:07;;;;;;;11.68;10.57;;;5.60;99.90;;;;;;4957540;29;20051;-90
2022/02/15 07:35:37;;;;;;;11.25;10.18;;;5.60;99.90;;;;;;4964286;29;20043;-86
2022/02/15 07:38:04;;;;;;;10.15;9.25;;;5.70;99.90;;;;;;4963128;29;20039;-90
2022/02/15 07:40:30;;;;;;;11.77;9.18;;;5.70;99.90;;;;;;4978061;28;20039;-90
2022/02/15 07:42:56;;;;;;;10.27;8.65;;;5.70;99.90;;;;;;4962861;29;20408;-87
2022/02/15 07:45:40;;;;;;;9.23;8.35;;;5.70;99.90;;;;;;4984084;28;20054;-87
2022/02/15 07:48:08;;;;;;;11.32;10.32;;;5.80;99.90;;;;;;4976539;29;20031;-87
2022/02/15 07:50:36;;;;;;;13.82;12.38;;;5.80;99.90;;;;;;4991171;28;20055;-87
2022/02/15 07:53:02;;;;;;;73.45;49.05;;;5.90;99.90;;;;;;4981877;28;20027;-87
2022/02/15 07:55:29;;;;;;;12.73;9.55;;;5.90;99.90;;;;;;4981277;28;20038;-84
2022/02/15 07:57:55;;;;;;;71.85;58.65;;;6.00;99.90;;;;;;4979648;28;20046;-89
2022/02/15 08:00:21;;;;;;;20.30;14.95;;;6.00;99.90;;;;;;4974710;28;20051;-89
2022/02/15 08:02:49;;;;;;;9.85;8.88;;;6.00;99.90;;;;;;4960909;29;20043;-90
2022/02/15 08:05:15;;;;;;;50.63;45.83;;;6.10;99.90;;;;;;4960732;29;20035;-90
2022/02/15 08:07:50;;;;;;;13.40;12.00;;;6.10;99.90;;;;;;4958169;29;20046;-90
2022/02/15 08:10:18;;;;;;;10.98;9.85;;;6.10;99.90;;;;;;4958518;29;20044;-89
2022/02/15 08:12:55;;;;;;;11.73;7.93;;;6.10;99.90;;;;;;4958998;29;20042;-90
2022/02/15 08:15:23;;;;;;;10.30;7.78;;;6.10;99.90;;;;;;4976717;28;20064;-89
2022/02/15 08:17:50;;;;;;;10.60;8.25;;;6.10;99.90;;;;;;4961784;29;20019;-91
2022/02/15 08:20:16;;;;;;;12.75;7.95;;;6.20;99.90;;;;;;4960204;28;20507;-85
2022/02/15 08:22:43;;;;;;;9.05;6.47;;;6.20;99.90;;;;;;4959573;29;20043;-90
2022/02/15 08:25:10;;;;;;;10.38;9.27;;;6.20;99.90;;;;;;4959025;28;20039;-90
2022/02/15 08:27:36;;;;;;;9.75;8.07;;;6.10;99.90;;;;;;4958477;29;20046;-90
2022/02/15 08:30:03;;;;;;;10.68;9.68;;;6.10;99.90;;;;;;4959057;29;20028;-88
2022/02/15 08:32:29;;;;;;;10.23;7.78;;;6.20;99.90;;;;;;4958302;29;20035;-89
2022/02/15 08:34:56;;;;;;;9.30;8.40;;;6.30;99.90;;;;;;4957982;29;20488;-90
2022/02/15 08:37:22;;;;;;;15.77;7.75;;;6.40;99.90;;;;;;4974349;28;20043;-90
2022/02/15 08:39:48;;;;;;;7.65;6.90;;;6.50;99.90;;;;;;4960195;29;20035;-91
2022/02/15 08:42:14;;;;;;;12.38;7.18;;;6.60;99.90;;;;;;4958866;29;20027;-91
2022/02/15 08:44:40;;;;;;;9.05;7.97;;;6.70;99.90;;;;;;4961908;29;20035;-90
2022/02/15 08:47:08;;;;;;;13.73;7.43;;;6.70;99.90;;;;;;4959278;29;20035;-91
2022/02/15 08:49:36;;;;;;;16.45;10.25;;;6.90;99.90;;;;;;4961831;28;20397;-90
2022/02/15 08:52:04;;;;;;;9.77;8.02;;;7.00;99.90;;;;;;4961667;29;20034;-89
2022/02/15 08:54:30;;;;;;;12.82;10.77;;;7.10;99.90;;;;;;4980073;28;20028;-82
2022/02/15 08:56:57;;;;;;;7.82;7.03;;;7.20;99.90;;;;;;4980743;28;20039;-88
2022/02/15 08:59:23;;;;;;;6.32;5.18;;;7.20;99.90;;;;;;4980169;28;20047;-78
2022/02/15 09:01:49;;;;;;;3.85;2.95;;;7.30;99.90;;;;;;4980657;28;20050;-87
2022/02/15 09:04:16;;;;;;;3.70;3.33;;;7.50;99.90;;;;;;4961853;29;20035;-91
2022/02/15 09:06:42;;;;;;;2.70;2.40;;;7.70;99.90;;;;;;4957425;29;20040;-91
2022/02/15 09:09:13;;;;;;;2.65;2.05;;;7.80;99.90;;;;;;4957479;29;20036;-91
2022/02/15 09:11:41;;;;;;;3.78;2.55;;;7.90;98.90;;;;;;4957734;29;20244;-89
2022/02/15 09:14:07;;;;;;;3.95;2.70;;;7.90;98.60;;;;;;4956102;29;20054;-91
2022/02/15 09:16:34;;;;;;;4.05;2.63;;;8.00;98.60;;;;;;4959828;29;20027;-86
2022/02/15 09:19:01;;;;;;;3.47;2.13;;;8.10;97.90;;;;;;4962026;29;20032;-90
2022/02/15 09:21:27;;;;;;;7.10;2.65;;;8.10;96.50;;;;;;4962266;29;20058;-89
2022/02/15 09:23:53;;;;;;;5.90;2.28;;;8.10;95.50;;;;;;4979689;29;20047;-91
2022/02/15 09:26:20;;;;;;;3.97;2.30;;;8.10;95.10;;;;;;4979864;29;20027;-91
2022/02/15 09:28:46;;;;;;;3.20;2.40;;;8.20;95.10;;;;;;4980149;29;20027;-86
2022/02/15 09:31:14;;;;;;;4.10;2.88;;;8.30;94.70;;;;;;4980251;28;20047;-87
2022/02/15 09:33:41;;;;;;;8.68;2.88;;;8.40;94.60;;;;;;4973233;29;20039;-89
2022/02/15 09:36:07;;;;;;;3.55;2.85;;;8.50;93.50;;;;;;4967819;28;20038;-90
2022/02/15 09:38:34;;;;;;;6.45;2.67;;;8.50;94.00;;;;;;4960665;29;20027;-92
2022/02/15 09:41:06;;;;;;;3.58;2.28;;;8.60;92.30;;;;;;4959712;29;20031;-92
2022/02/15 09:43:37;;;;;;;4.15;2.38;;;8.60;91.90;;;;;;4955887;29;20392;-90
2022/02/15 09:46:13;;;;;;;2.45;1.98;;;8.70;91.70;;;;;;4957848;29;20039;-91
2022/02/15 09:48:43;;;;;;;5.25;2.20;;;9.00;91.00;;;;;;4958478;29;20031;-90
2022/02/15 09:51:12;;;;;;;3.15;2.25;;;8.90;89.20;;;;;;4961732;29;20027;-90
2022/02/15 09:53:38;;;;;;;1.88;1.55;;;8.80;90.00;;;;;;4957942;29;20043;-91
2022/02/15 09:56:05;;;;;;;3.72;2.00;;;8.90;88.20;;;;;;4956054;29;20046;-90
2022/02/15 09:58:35;;;;;;;2.28;1.75;;;8.90;86.90;;;;;;4956447;29;20441;-90
2022/02/15 10:01:02;;;;;;;3.22;1.40;;;9.00;88.20;;;;;;4957155;29;20055;-89
2022/02/15 10:03:28;;;;;;;2.25;2.03;;;9.10;86.50;;;;;;4956186;29;20031;-91
2022/02/15 10:05:54;;;;;;;2.75;2.15;;;9.00;86.40;;;;;;4956982;29;20042;-91
2022/02/15 10:08:28;;;;;;;3.83;2.50;;;9.10;86.50;;;;;;4956987;29;20032;-91
2022/02/15 10:10:55;;;;;;;2.63;1.52;;;9.20;86.50;;;;;;4957675;29;20027;-90
2022/02/15 10:13:21;;;;;;;2.47;1.73;;;9.40;84.40;;;;;;4960864;29;20388;-91
2022/02/15 10:15:51;;;;;;;3.22;1.63;;;9.40;84.30;;;;;;4959007;29;20039;-90
2022/02/15 10:18:22;;;;;;;2.80;1.60;;;9.30;82.80;;;;;;4966337;29;20041;-90
2022/02/15 10:20:54;;;;;;;3.65;0.90;;;9.30;83.90;;;;;;4960208;29;20027;-91
2022/02/15 10:23:26;;;;;;;2.15;1.30;;;9.40;82.60;;;;;;4942679;29;20047;-92
2022/02/15 10:25:55;;;;;;;2.47;1.08;;;9.40;82.50;;;;;;4957521;28;20396;-91
2022/02/15 10:28:30;;;;;;;3.30;1.30;;;9.30;81.90;;;;;;4957057;29;20043;-91
2022/02/15 10:31:04;;;;;;;3.80;0.82;;;9.30;80.40;;;;;;4955746;29;20050;-90
2022/02/15 10:33:38;;;;;;;1.48;0.75;;;9.30;78.70;;;;;;4956957;29;20043;-91
2022/02/15 10:36:12;;;;;;;0.85;0.50;;;9.40;77.80;;;;;;4957795;29;20035;-91
2022/02/15 10:38:47;;;;;;;1.83;0.90;;;9.30;76.30;;;;;;4956900;29;20449;-92
2022/02/15 10:41:19;;;;;;;1.05;0.82;;;9.20;76.30;;;;;;4956899;29;20031;-89
2022/02/15 10:43:51;;;;;;;1.50;0.90;;;9.30;76.30;;;;;;4970360;28;20221;-89
2022/02/15 10:46:24;;;;;;;2.28;1.33;;;9.30;75.50;;;;;;4956821;29;20038;-91
2022/02/15 10:48:53;;;;;;;5.13;1.40;;;9.20;74.90;;;;;;4956654;28;20507;-90
2022/02/15 10:51:20;;;;;;;1.25;1.08;;;9.10;74.70;;;;;;4957122;29;20046;-91
2022/02/15 10:53:46;;;;;;;1.70;1.30;;;9.00;76.00;;;;;;4954621;29;20035;-88
2022/02/15 10:56:13;;;;;;;3.08;1.10;;;9.00;76.90;;;;;;4956467;29;20035;-89
2022/02/15 10:58:40;;;;;;;4.95;1.05;;;8.90;77.10;;;;;;4956561;29;20453;-89
2022/02/15 11:01:09;;;;;;;1.23;0.60;;;8.80;76.40;;;;;;4961786;29;20051;-92
2022/02/15 11:03:37;;;;;;;1.92;0.75;;;8.80;76.90;;;;;;4957978;29;20146;-91
2022/02/15 11:06:05;;;;;;;1.38;0.60;;;8.80;75.80;;;;;;4955707;29;20035;-90
2022/02/15 11:08:33;;;;;;;2.00;0.70;;;8.90;75.80;;;;;;4957959;29;20050;-91
2022/02/15 11:11:02;;;;;;;2.63;0.98;;;9.00;75.10;;;;;;4957452;29;20039;-91
2022/02/15 11:13:29;;;;;;;2.42;1.48;;;9.10;75.40;;;;;;4971140;28;20042;-90
2022/02/15 11:15:56;;;;;;;1.80;0.98;;;9.30;73.60;;;;;;4957701;29;20035;-93
2022/02/15 11:18:34;;;;;;;5.38;0.95;;;9.30;73.10;;;;;;4956957;29;20043;-90
2022/02/15 11:21:02;;;;;;;2.30;0.90;;;9.40;73.90;;;;;;4957456;29;20457;-90
2022/02/15 11:23:34;;;;;;;1.38;0.93;;;9.40;72.90;;;;;;4956587;29;20112;-89
2022/02/15 11:26:07;;;;;;;1.30;0.90;;;9.40;74.30;;;;;;4956642;29;20040;-89
2022/02/15 11:28:44;;;;;;;1.15;0.82;;;9.40;73.90;;;;;;4955704;29;20027;-90
2022/02/15 11:31:22;;;;;;;2.67;1.60;;;9.40;74.60;;;;;;4956303;28;20051;-89
2022/02/15 11:33:52;;;;;;;2.75;1.40;;;9.40;76.00;;;;;;4955757;29;20051;-88
2022/02/15 11:36:23;;;;;;;2.08;1.27;;;9.30;76.60;;;;;;4957323;29;20035;-93
2022/02/15 11:38:51;;;;;;;3.22;1.00;;;9.30;77.10;;;;;;4956137;29;20062;-94
2022/02/15 11:41:18;;;;;;;1.58;0.90;;;9.10;77.90;;;;;;4957359;29;20054;-91
2022/02/15 11:43:56;;;;;;;1.95;0.63;;;8.80;80.00;;;;;;4955651;29;20050;-92
2022/02/15 11:46:43;;;;;;;3.08;0.70;;;8.80;82.00;;;;;;4957224;29;20043;-91
2022/02/15 11:49:14;;;;;;;1.33;0.50;;;8.70;81.40;;;;;;4956975;29;20042;-94
2022/02/15 11:51:49;;;;;;;1.13;0.93;;;8.70;82.50;;;;;;4958887;29;20035;-94
2022/02/15 11:54:24;;;;;;;1.38;0.95;;;8.90;82.30;;;;;;4960821;29;20042;-91
2022/02/15 11:56:52;;;;;;;2.63;1.52;;;8.90;82.20;;;;;;4964006;29;20039;-93
2022/02/15 11:59:21;;;;;;;3.33;2.00;;;8.70;85.50;;;;;;4964858;28;20035;-94
2022/02/15 12:01:58;;;;;;;2.97;1.58;;;8.50;85.60;;;;;;4980836;28;20054;-90
2022/02/15 12:04:26;;;;;;;2.17;1.52;;;8.50;87.40;;;;;;4963459;29;20039;-92
2022/02/15 12:06:59;;;;;;;1.83;1.50;;;8.60;85.50;;;;;;4960019;29;20038;-92
2022/02/15 12:09:30;;;;;;;1.50;0.90;;;8.70;86.50;;;;;;4962723;29;20031;-92
2022/02/15 12:11:58;;;;;;;0.70;0.57;;;8.80;85.00;;;;;;4960822;29;20031;-83
2022/02/15 12:14:25;;;;;;;1.88;0.90;;;9.00;81.50;;;;;;4957044;28;20047;-84
2022/02/15 12:17:00;;;;;;;1.38;0.85;;;9.30;77.50;;;;;;4956923;29;20038;-83
2022/02/15 12:19:33;;;;;;;1.45;0.75;;;9.60;76.60;;;;;;4957655;29;20027;-85
2022/02/15 12:22:02;;;;;;;1.98;1.08;;;9.80;75.00;;;;;;4957507;29;20038;-83
2022/02/15 12:24:31;;;;;;;3.83;0.93;;;9.80;76.00;;;;;;4957749;29;20472;-82
2022/02/15 12:27:00;;;;;;;1.40;1.17;;;9.80;76.10;;;;;;4956969;28;20035;-86
2022/02/15 12:29:28;;;;;;;1.98;1.38;;;9.70;74.80;;;;;;4967689;29;20035;-84
2022/02/15 12:31:59;;;;;;;2.13;1.27;;;9.60;76.90;;;;;;4956796;29;20032;-85
2022/02/15 12:34:25;;;;;;;;;;;9.70;75.40;;;;;;4959141;29;20035;-85
2022/02/15 12:36:52;;;;;;;1.02;0.80;;;9.70;75.30;;;;;;4957553;29;20142;-85
2022/02/15 12:39:20;;;;;;;1.55;1.00;;;9.70;75.30;;;;;;4957792;29;20040;-80
2022/02/15 12:41:49;;;;;;;2.33;1.02;;;9.90;74.80;;;;;;4959116;29;20039;-84
2022/02/15 12:44:16;;;;;;;0.95;0.80;;;10.20;74.20;;;;;;4957639;29;20050;-86
2022/02/15 12:46:43;;;;;;;2.92;1.02;;;10.40;72.20;;;;;;4957292;29;20031;-85
2022/02/15 12:49:10;;;;;;;6.35;1.67;;;10.30;73.30;;;;;;4958531;29;20057;-86
2022/02/15 12:51:37;;;;;;;2.78;0.70;;;10.20;71.50;;;;;;4960777;29;20031;-85
2022/02/15 12:54:08;;;;;;;1.52;0.77;;;10.10;69.70;;;;;;4959474;28;20472;-85
2022/02/15 12:56:37;;;;;;;0.85;0.77;;;9.90;71.10;;;;;;4960187;29;20034;-85
2022/02/15 12:59:05;;;;;;;3.20;0.98;;;9.80;71.60;;;;;;4958058;29;20035;-86
2022/02/15 13:01:34;;;;;;;2.40;1.00;;;9.40;73.00;;;;;;4957585;28;20058;-85
2022/02/15 13:04:04;;;;;;;1.10;0.90;;;9.00;77.10;;;;;;4957287;29;20046;-83